Time;durP1;ratioP1;P1;durP2;ratioP2;P2;SDS_P1;SDS_P2;PMS_P1;PMS_P2;Temp;Humidity;BMP_temperature;BMP_pressure;BME280_temperature;BME280_humidity;BME280_pressure;Samples;Min_cycle;Max_cycle;Signal;HPM_P1;HPM_P2
2022/07/13 00:01:21;;;;;;;9.80;9.50;;;17.20;99.90;;;;;;5054653;28;20247;-81
2022/07/13 00:04:31;;;;;;;9.80;9.50;;;17.20;99.90;;;;;;5050823;28;20235;-82
2022/07/13 00:07:05;;;;;;;9.27;8.98;;;17.20;99.90;;;;;;5048224;28;20242;-81
2022/07/13 00:16:32;;;;;;;9.40;9.10;;;17.10;99.90;;;;;;5052981;28;20255;-80
2022/07/13 00:19:21;;;;;;;9.27;8.98;;;17.00;99.90;;;;;;5007180;28;20219;-81
2022/07/13 00:22:16;;;;;;;9.30;9.00;;;16.90;99.90;;;;;;5058706;28;20199;-81
2022/07/13 00:27:57;;;;;;;9.40;9.10;;;16.80;99.90;;;;;;5059906;28;20219;-81
2022/07/13 00:30:48;;;;;;;9.82;9.52;;;16.80;99.90;;;;;;5059766;28;20215;-81
2022/07/13 00:36:45;;;;;;;9.00;8.80;;;16.60;99.90;;;;;;5053370;28;21126;-81
2022/07/13 00:39:19;;;;;;;9.20;8.90;;;16.50;99.90;;;;;;4959711;28;20307;-81
2022/07/13 00:42:09;;;;;;;9.50;9.20;;;16.50;99.90;;;;;;5039433;28;20235;-81
2022/07/13 00:45:03;;;;;;;9.70;9.40;;;16.50;99.90;;;;;;5039414;28;20251;-81
2022/07/13 00:47:49;;;;;;;9.80;9.50;;;16.40;99.90;;;;;;5039592;28;20242;-81
2022/07/13 00:50:52;;;;;;;9.73;9.43;;;16.30;99.90;;;;;;5039070;28;20234;-81
2022/07/13 00:59:40;;;;;;;9.45;9.15;;;16.20;99.90;;;;;;5036207;28;20236;-81
2022/07/13 01:02:35;;;;;;;9.40;9.10;;;16.20;99.90;;;;;;5040061;28;20294;-81
2022/07/13 01:08:21;;;;;;;9.55;9.25;;;16.20;99.90;;;;;;5037674;28;20239;-81
2022/07/13 01:11:29;;;;;;;9.40;9.10;;;16.10;99.90;;;;;;5040168;28;20231;-81
2022/07/13 01:21:26;;;;;;;9.80;9.50;;;15.90;99.90;;;;;;5041978;28;20231;-81
2022/07/13 01:27:05;;;;;;;9.70;9.40;;;15.60;99.90;;;;;;5044845;28;20271;-81
2022/07/13 01:30:23;;;;;;;;;;;;;;;;;;;;;
2022/07/13 01:33:15;;;;;;;9.50;9.20;;;15.50;99.90;;;;;;5050026;28;20211;-81
2022/07/13 01:36:18;;;;;;;9.15;8.90;;;15.50;99.90;;;;;;5048602;28;20235;-81
2022/07/13 01:39:12;;;;;;;9.23;8.95;;;15.50;99.90;;;;;;5046460;28;20323;-81
2022/07/13 01:42:06;;;;;;;9.30;9.00;;;15.50;99.90;;;;;;4923849;29;20301;-81
2022/07/13 01:48:14;;;;;;;9.10;8.90;;;15.40;99.90;;;;;;5036627;28;20247;-81
2022/07/13 01:51:07;;;;;;;8.88;8.68;;;15.40;99.90;;;;;;5040793;28;20231;-81
2022/07/13 01:53:50;;;;;;;9.05;8.85;;;15.40;99.90;;;;;;5031956;28;21105;-82
2022/07/13 02:00:04;;;;;;;9.30;9.00;;;15.40;99.90;;;;;;5031082;28;20251;-83
2022/07/13 02:03:11;;;;;;;9.00;8.80;;;15.40;99.90;;;;;;5046020;28;20227;-82
2022/07/13 02:09:00;;;;;;;9.20;8.90;;;15.30;99.90;;;;;;5038237;28;20777;-82
2022/07/13 02:11:50;;;;;;;9.10;8.90;;;15.30;99.90;;;;;;5045459;28;20251;-82
2022/07/13 02:14:35;;;;;;;9.20;8.90;;;15.20;99.90;;;;;;5043549;28;20707;-82
2022/07/13 02:17:49;;;;;;;8.90;8.70;;;15.20;99.90;;;;;;5041838;28;20242;-82
2022/07/13 02:23:43;;;;;;;9.02;8.77;;;15.10;99.90;;;;;;5029046;28;20239;-82
2022/07/13 02:29:40;;;;;;;8.75;8.55;;;14.90;99.90;;;;;;5031255;28;20226;-82
2022/07/13 02:32:21;;;;;;;8.65;8.45;;;14.90;99.90;;;;;;5044148;28;20234;-82
2022/07/13 02:35:09;;;;;;;9.00;8.80;;;14.80;99.90;;;;;;5043499;28;20289;-82
2022/07/13 02:41:04;;;;;;;8.50;8.30;;;14.80;99.90;;;;;;5035311;28;20242;-82
2022/07/13 02:44:07;;;;;;;8.73;8.52;;;14.80;99.90;;;;;;5039685;28;20286;-82
2022/07/13 02:47:08;;;;;;;8.82;8.63;;;14.80;99.90;;;;;;5026889;28;20289;-82
2022/07/13 02:53:11;;;;;;;8.65;8.45;;;14.70;99.90;;;;;;5040632;28;20235;-82
2022/07/13 02:56:01;;;;;;;9.00;8.80;;;14.70;99.90;;;;;;5042779;28;20231;-82
2022/07/13 02:58:51;;;;;;;8.90;8.70;;;14.60;99.90;;;;;;5042321;28;20236;-82
2022/07/13 03:04:52;;;;;;;9.27;8.98;;;14.60;99.90;;;;;;5041044;28;20231;-82
2022/07/13 03:11:18;;;;;;;9.03;8.80;;;14.60;99.90;;;;;;4980564;28;20365;-82
2022/07/13 03:14:03;;;;;;;;;;;;;;;;;;;;;
2022/07/13 03:16:44;;;;;;;9.13;8.82;;;14.60;99.90;;;;;;5023482;28;20266;-82
2022/07/13 03:19:29;;;;;;;8.90;8.70;;;14.60;99.90;;;;;;5041263;28;20240;-82
2022/07/13 03:21:56;;;;;;;8.90;8.70;;;14.70;99.90;;;;;;5042313;28;20231;-82
2022/07/13 03:24:24;;;;;;;8.80;8.60;;;14.70;99.90;;;;;;5041109;28;20270;-82
2022/07/13 03:26:52;;;;;;;9.00;8.75;;;14.80;99.90;;;;;;5040736;28;20267;-82
2022/07/13 03:29:21;;;;;;;9.20;8.90;;;14.80;99.90;;;;;;5041084;28;20223;-83
2022/07/13 03:31:48;;;;;;;9.38;9.07;;;14.80;99.90;;;;;;5041204;28;20326;-82
2022/07/13 03:34:16;;;;;;;8.60;8.40;;;14.80;99.90;;;;;;5041176;28;20258;-82
2022/07/13 03:36:44;;;;;;;9.10;8.80;;;14.80;99.90;;;;;;5040875;28;20227;-82
2022/07/13 03:39:12;;;;;;;9.23;8.93;;;14.80;99.90;;;;;;5040004;28;20254;-81
2022/07/13 03:41:39;;;;;;;8.88;8.68;;;14.90;99.90;;;;;;5041827;28;20291;-81
2022/07/13 03:44:07;;;;;;;8.93;8.73;;;14.90;99.90;;;;;;5040843;28;20231;-81
2022/07/13 03:46:36;;;;;;;9.27;8.98;;;14.90;99.90;;;;;;5040882;28;20223;-81
2022/07/13 03:49:04;;;;;;;9.13;8.82;;;15.00;99.90;;;;;;5041661;28;20228;-80
2022/07/13 03:51:31;;;;;;;8.90;8.70;;;15.00;99.90;;;;;;5041698;28;20233;-83
2022/07/13 03:54:02;;;;;;;8.95;8.73;;;15.00;99.90;;;;;;5041464;28;20281;-83
2022/07/13 03:56:30;;;;;;;8.75;8.55;;;15.10;99.90;;;;;;5041284;28;20242;-83
2022/07/13 03:59:02;;;;;;;8.95;8.75;;;15.10;99.90;;;;;;5041073;28;20286;-83
2022/07/13 04:01:29;;;;;;;8.70;8.50;;;15.10;99.90;;;;;;5041427;28;20227;-83
2022/07/13 04:03:59;;;;;;;8.60;8.40;;;15.10;99.90;;;;;;5048100;28;20283;-83
2022/07/13 04:06:27;;;;;;;8.68;8.48;;;15.20;99.90;;;;;;5041653;28;20234;-83
2022/07/13 04:08:54;;;;;;;8.70;8.50;;;15.20;99.90;;;;;;5042004;28;20234;-83
2022/07/13 04:11:22;;;;;;;8.57;8.38;;;15.20;99.90;;;;;;5041121;28;20279;-83
2022/07/13 04:13:49;;;;;;;8.63;8.43;;;15.20;99.90;;;;;;5041449;28;20326;-83
2022/07/13 04:16:17;;;;;;;8.88;8.68;;;15.20;99.90;;;;;;5042613;28;20266;-83
2022/07/13 04:18:45;;;;;;;9.18;8.88;;;15.20;99.90;;;;;;5040984;28;20299;-83
2022/07/13 04:21:14;;;;;;;9.40;9.10;;;15.20;99.90;;;;;;5041756;28;20729;-82
2022/07/13 04:23:42;;;;;;;9.40;9.10;;;15.20;99.90;;;;;;5042858;28;20231;-82
2022/07/13 04:26:10;;;;;;;9.25;8.95;;;15.20;99.90;;;;;;5060294;28;20224;-81
2022/07/13 04:28:37;;;;;;;9.10;8.80;;;15.10;99.90;;;;;;5061017;28;20204;-81
2022/07/13 04:31:05;;;;;;;8.95;8.70;;;15.10;99.90;;;;;;5060941;28;20243;-82
2022/07/13 04:33:33;;;;;;;9.20;8.90;;;15.10;99.90;;;;;;5061254;28;20222;-81
2022/07/13 04:36:00;;;;;;;9.40;9.10;;;15.10;99.90;;;;;;5060523;28;20224;-82
2022/07/13 04:38:30;;;;;;;9.45;9.15;;;15.00;99.90;;;;;;5060173;28;20245;-82
2022/07/13 04:40:57;;;;;;;9.10;8.80;;;15.00;99.90;;;;;;5061028;28;20234;-81
2022/07/13 04:43:25;;;;;;;9.13;8.82;;;15.00;99.90;;;;;;5060788;28;20219;-82
2022/07/13 04:45:53;;;;;;;9.10;8.80;;;15.00;99.90;;;;;;5060464;28;20215;-82
2022/07/13 04:48:20;;;;;;;9.43;9.13;;;14.90;99.90;;;;;;5059842;28;20211;-82
2022/07/13 04:50:48;;;;;;;9.43;9.13;;;14.90;99.90;;;;;;5057023;28;20255;-82
2022/07/13 04:53:15;;;;;;;9.40;9.10;;;14.90;99.90;;;;;;5056740;28;20232;-82
2022/07/13 04:55:45;;;;;;;9.40;9.10;;;14.90;99.90;;;;;;5049571;28;20291;-82
2022/07/13 04:58:12;;;;;;;9.90;9.60;;;14.90;99.90;;;;;;5042897;28;20287;-82
2022/07/13 05:00:40;;;;;;;9.30;9.00;;;14.90;99.90;;;;;;5040631;28;20254;-82
2022/07/13 05:03:07;;;;;;;9.70;9.40;;;15.00;99.90;;;;;;5040216;28;20276;-82
2022/07/13 05:05:35;;;;;;;9.57;9.27;;;15.00;99.90;;;;;;5040428;28;20297;-82
2022/07/13 05:08:03;;;;;;;9.35;9.05;;;15.10;99.90;;;;;;5039309;28;20274;-82
2022/07/13 05:10:31;;;;;;;9.20;8.90;;;15.10;99.90;;;;;;5038703;28;20223;-82
2022/07/13 05:13:00;;;;;;;9.15;8.85;;;15.30;99.90;;;;;;5038288;28;20289;-82
2022/07/13 05:15:28;;;;;;;9.40;9.10;;;15.40;99.90;;;;;;5042530;28;20323;-82
2022/07/13 05:17:55;;;;;;;9.52;9.23;;;15.50;99.90;;;;;;5040409;28;20250;-81
2022/07/13 05:20:23;;;;;;;9.40;9.10;;;15.70;99.90;;;;;;5040541;28;20239;-82
2022/07/13 05:22:50;;;;;;;9.85;9.55;;;15.90;99.90;;;;;;5040579;28;20258;-83
2022/07/13 05:25:18;;;;;;;9.45;9.15;;;16.00;99.90;;;;;;5041083;28;20238;-83
2022/07/13 05:27:45;;;;;;;9.70;9.40;;;16.20;99.90;;;;;;5042442;28;21153;-82
2022/07/13 05:30:14;;;;;;;9.73;9.43;;;16.40;99.90;;;;;;5051395;28;20235;-82
2022/07/13 05:32:42;;;;;;;9.60;9.30;;;16.50;99.90;;;;;;5047540;28;20231;-83
2022/07/13 05:35:10;;;;;;;9.75;9.45;;;16.70;99.90;;;;;;5040750;28;20750;-82
2022/07/13 05:40:03;;;;;;;9.93;9.63;;;17.00;99.90;;;;;;5055734;22;20316;-85
2022/07/13 05:42:33;;;;;;;10.02;9.73;;;17.20;99.90;;;;;;5040972;28;20239;-83
2022/07/13 05:45:00;;;;;;;9.95;9.65;;;17.30;99.90;;;;;;5040828;28;20223;-82
2022/07/13 05:47:32;;;;;;;9.52;9.23;;;17.40;99.90;;;;;;5041475;28;20224;-83
2022/07/13 05:50:00;;;;;;;10.00;9.70;;;17.60;99.90;;;;;;5041209;28;20335;-84
2022/07/13 05:52:27;;;;;;;9.57;9.27;;;17.80;99.90;;;;;;5042525;28;20255;-84
2022/07/13 05:54:55;;;;;;;9.75;9.45;;;18.00;99.90;;;;;;5042280;28;20244;-83
2022/07/13 05:57:23;;;;;;;9.50;9.20;;;18.10;99.90;;;;;;5042656;28;20242;-83
2022/07/13 05:59:50;;;;;;;9.60;9.30;;;18.20;99.90;;;;;;5041628;28;20282;-83
2022/07/13 06:02:18;;;;;;;9.60;9.30;;;18.40;99.90;;;;;;5044958;28;20322;-82
2022/07/13 06:04:47;;;;;;;9.73;9.43;;;18.60;99.90;;;;;;5053154;28;20235;-84
2022/07/13 06:07:15;;;;;;;10.20;9.90;;;18.80;99.90;;;;;;5053730;28;20287;-86
2022/07/13 06:09:43;;;;;;;10.38;10.07;;;18.90;99.90;;;;;;5053952;28;20262;-83
2022/07/13 06:12:11;;;;;;;9.93;9.63;;;19.10;99.90;;;;;;5047017;28;20235;-83
2022/07/13 06:14:38;;;;;;;10.30;10.00;;;19.20;99.90;;;;;;5042862;28;20227;-84
2022/07/13 06:17:11;;;;;;;10.38;10.07;;;19.30;99.90;;;;;;5042675;28;20267;-83
2022/07/13 06:19:39;;;;;;;10.10;9.80;;;19.50;99.90;;;;;;5042490;28;20245;-84
2022/07/13 06:22:12;;;;;;;10.50;10.20;;;19.60;99.90;;;;;;5042188;28;20227;-83
2022/07/13 06:24:42;;;;;;;10.40;10.10;;;19.70;99.90;;;;;;5041000;28;20234;-83
2022/07/13 06:27:10;;;;;;;10.25;9.95;;;19.90;99.90;;;;;;5041815;28;20231;-84
2022/07/13 06:29:39;;;;;;;10.35;10.05;;;20.10;99.90;;;;;;5040759;28;20285;-85
2022/07/13 06:32:07;;;;;;;10.27;9.98;;;20.30;99.90;;;;;;5040827;28;20707;-84
2022/07/13 06:34:35;;;;;;;9.80;9.50;;;20.30;99.90;;;;;;5040872;28;20242;-85
2022/07/13 06:37:10;;;;;;;10.05;9.75;;;20.50;99.90;;;;;;5040604;28;20231;-85
2022/07/13 06:39:40;;;;;;;10.45;10.15;;;20.60;99.90;;;;;;5040616;28;20242;-84
2022/07/13 06:42:09;;;;;;;10.40;10.10;;;20.70;99.90;;;;;;5042203;28;20231;-84
2022/07/13 06:44:38;;;;;;;10.55;10.25;;;20.70;99.90;;;;;;5047660;28;20290;-85
2022/07/13 06:47:06;;;;;;;10.30;10.00;;;20.80;99.90;;;;;;5050308;28;20223;-85
2022/07/13 06:49:33;;;;;;;10.60;10.30;;;20.80;99.90;;;;;;5042755;28;20231;-85
2022/07/13 06:52:04;;;;;;;10.60;10.30;;;20.90;99.90;;;;;;5041597;28;20228;-85
2022/07/13 06:54:36;;;;;;;10.90;10.60;;;21.10;99.90;;;;;;5041616;28;20246;-85
2022/07/13 06:57:06;;;;;;;10.57;10.27;;;21.40;99.90;;;;;;5041096;28;20232;-85
2022/07/13 06:59:34;;;;;;;10.40;10.10;;;21.50;99.90;;;;;;5041392;28;20241;-85
2022/07/13 07:02:02;;;;;;;10.48;10.18;;;21.70;99.90;;;;;;5041298;28;20700;-85
2022/07/13 07:04:30;;;;;;;10.70;10.40;;;21.90;99.90;;;;;;5040202;28;20231;-85
2022/07/13 07:06:58;;;;;;;10.90;10.60;;;22.00;99.90;;;;;;5040458;28;20231;-86
2022/07/13 07:09:28;;;;;;;10.30;10.00;;;22.10;99.90;;;;;;5039755;28;20246;-85
2022/07/13 07:12:00;;;;;;;10.30;10.00;;;22.20;99.90;;;;;;5040560;28;20263;-85
2022/07/13 07:14:37;;;;;;;10.10;9.80;;;22.20;99.90;;;;;;5043668;28;20227;-86
2022/07/13 07:17:05;;;;;;;9.85;9.55;;;22.30;99.90;;;;;;5043974;28;20985;-85
2022/07/13 07:19:36;;;;;;;10.00;9.70;;;22.40;99.90;;;;;;5043040;28;20246;-85
2022/07/13 07:22:04;;;;;;;10.20;9.90;;;22.50;99.90;;;;;;5043615;28;20235;-85
2022/07/13 07:24:32;;;;;;;9.70;9.40;;;22.70;99.90;;;;;;5043505;28;20301;-86
2022/07/13 07:27:02;;;;;;;9.77;9.48;;;22.90;99.90;;;;;;5043146;28;20246;-85
2022/07/13 07:29:30;;;;;;;10.10;9.80;;;23.20;99.90;;;;;;5043525;28;20239;-86
2022/07/13 07:31:58;;;;;;;9.68;9.38;;;23.30;99.90;;;;;;5043323;28;20235;-85
2022/07/13 07:34:26;;;;;;;10.10;9.80;;;23.40;99.90;;;;;;5043031;28;20234;-85
2022/07/13 07:36:53;;;;;;;10.20;9.90;;;23.30;99.90;;;;;;5043423;28;20262;-85
2022/07/13 07:39:22;;;;;;;10.38;10.07;;;23.30;99.90;;;;;;5043431;28;20243;-85
2022/07/13 07:41:50;;;;;;;10.20;9.90;;;23.20;99.90;;;;;;5044303;28;20258;-85
2022/07/13 07:44:19;;;;;;;10.38;10.07;;;23.30;99.90;;;;;;5044260;28;20239;-86
2022/07/13 07:46:50;;;;;;;10.27;9.98;;;23.40;99.90;;;;;;5048830;28;20228;-86
2022/07/13 07:49:18;;;;;;;10.25;9.95;;;23.40;99.90;;;;;;5056609;28;20232;-86
2022/07/13 07:51:48;;;;;;;10.20;9.90;;;23.50;99.90;;;;;;5051863;28;20242;-86
2022/07/13 07:54:17;;;;;;;10.07;9.77;;;23.40;99.90;;;;;;5047759;28;20297;-85
2022/07/13 07:56:49;;;;;;;10.18;9.88;;;23.50;99.90;;;;;;5046921;28;20254;-86
2022/07/13 07:59:29;;;;;;;10.07;9.77;;;23.50;99.90;;;;;;5045836;28;20346;-85
2022/07/13 08:01:59;;;;;;;10.63;10.32;;;23.50;99.90;;;;;;5045344;28;20235;-85
2022/07/13 08:04:28;;;;;;;10.82;10.52;;;23.80;99.90;;;;;;5043581;28;20223;-86
2022/07/13 08:06:58;;;;;;;10.73;10.43;;;23.90;99.90;;;;;;5044351;28;20216;-86
2022/07/13 08:09:28;;;;;;;10.95;10.65;;;24.00;99.90;;;;;;5044795;28;20258;-85
2022/07/13 08:11:56;;;;;;;10.82;10.52;;;24.20;99.90;;;;;;5044556;28;20326;-85
2022/07/13 08:14:25;;;;;;;10.88;10.57;;;24.30;99.90;;;;;;5044367;28;20223;-86
2022/07/13 08:16:59;;;;;;;11.07;10.77;;;24.50;99.90;;;;;;5044019;28;20232;-85
2022/07/13 08:19:27;;;;;;;10.95;10.65;;;24.60;99.90;;;;;;5044235;28;20246;-85
2022/07/13 08:21:55;;;;;;;10.88;10.57;;;24.80;99.90;;;;;;5044221;28;20235;-85
2022/07/13 08:24:23;;;;;;;11.00;10.70;;;25.00;99.90;;;;;;5043458;28;20235;-86
2022/07/13 08:26:54;;;;;;;10.90;10.60;;;25.20;99.90;;;;;;5044110;28;20224;-86
2022/07/13 08:29:21;;;;;;;10.98;10.68;;;25.30;99.90;;;;;;5042425;28;20243;-85
2022/07/13 08:31:51;;;;;;;10.98;10.68;;;25.50;99.90;;;;;;5043323;28;20227;-86
2022/07/13 08:39:48;;;;;;;10.90;10.60;;;25.80;99.90;;;;;;5043750;28;20231;-86
2022/07/13 08:42:16;;;;;;;10.43;10.13;;;25.90;99.90;;;;;;5042916;28;20227;-86
2022/07/13 08:44:44;;;;;;;10.30;10.00;;;26.00;99.90;;;;;;5043487;28;20255;-86
2022/07/13 08:47:13;;;;;;;10.60;10.30;;;26.10;99.90;;;;;;5043893;28;20211;-85
2022/07/13 08:49:41;;;;;;;10.50;10.20;;;26.30;99.90;;;;;;5043395;28;20243;-86
2022/07/13 08:52:09;;;;;;;10.40;10.10;;;26.50;99.90;;;;;;5045934;28;20258;-86
2022/07/13 08:54:39;;;;;;;10.35;10.05;;;26.50;99.90;;;;;;5044028;28;20231;-86
2022/07/13 08:57:08;;;;;;;10.48;10.18;;;26.60;99.90;;;;;;5044228;28;20243;-85
2022/07/13 08:59:36;;;;;;;10.73;10.43;;;26.80;99.90;;;;;;5044446;28;20259;-85
2022/07/13 09:02:04;;;;;;;11.32;11.02;;;27.00;99.90;;;;;;5049148;28;20241;-85
2022/07/13 09:04:33;;;;;;;10.93;10.63;;;27.20;99.90;;;;;;5047785;28;20235;-85
2022/07/13 09:07:01;;;;;;;11.30;11.00;;;27.50;99.90;;;;;;5043902;28;20234;-85
2022/07/13 09:09:33;;;;;;;11.07;10.77;;;27.60;99.90;;;;;;5043210;28;20243;-85
2022/07/13 09:12:18;;;;;;;10.88;10.57;;;27.60;99.90;;;;;;5043371;28;20266;-85
2022/07/13 09:14:52;;;;;;;10.88;10.57;;;28.10;99.90;;;;;;5042916;28;20232;-85
2022/07/13 09:17:38;;;;;;;11.05;10.75;;;28.50;99.90;;;;;;5043020;28;20223;-85
2022/07/13 09:20:25;;;;;;;11.20;10.90;;;28.60;99.90;;;;;;5041985;28;20265;-84
2022/07/13 09:22:58;;;;;;;10.80;10.50;;;29.10;99.90;;;;;;5042640;28;20667;-84
2022/07/13 09:25:34;;;;;;;10.93;10.63;;;29.30;99.90;;;;;;5041699;28;20243;-84
2022/07/13 09:28:04;;;;;;;11.13;10.82;;;29.00;99.90;;;;;;5041836;28;20223;-84
2022/07/13 09:30:34;;;;;;;10.98;10.68;;;28.90;99.90;;;;;;5042933;28;20235;-85
2022/07/13 09:33:03;;;;;;;11.40;11.10;;;29.20;99.90;;;;;;5042312;28;20249;-84
2022/07/13 09:35:46;;;;;;;10.85;10.55;;;29.50;99.90;;;;;;5040433;28;20223;-84
2022/07/13 09:38:32;;;;;;;11.07;10.77;;;29.80;99.90;;;;;;5041734;28;20239;-84
2022/07/13 09:41:21;;;;;;;11.00;10.70;;;29.70;99.90;;;;;;5043092;28;20306;-84
2022/07/13 09:46:57;;;;;;;10.73;10.43;;;30.20;99.90;;;;;;5042157;28;20219;-84
2022/07/13 09:49:34;;;;;;;10.90;10.60;;;30.30;99.90;;;;;;5043003;28;20231;-84
2022/07/13 09:52:09;;;;;;;10.85;10.55;;;30.40;99.90;;;;;;5041910;28;20250;-84
2022/07/13 09:54:39;;;;;;;10.65;10.35;;;30.70;99.90;;;;;;5042880;28;20235;-84
2022/07/13 09:57:09;;;;;;;10.60;10.30;;;31.00;99.90;;;;;;5041888;28;20239;-84
2022/07/13 09:59:38;;;;;;;11.00;10.70;;;31.30;99.90;;;;;;5042574;28;20259;-84
2022/07/13 10:02:07;;;;;;;10.98;10.68;;;31.20;99.90;;;;;;5042016;28;20242;-84
2022/07/13 10:04:36;;;;;;;10.60;10.30;;;31.20;99.90;;;;;;5041975;28;20255;-84
2022/07/13 10:07:07;;;;;;;10.90;10.60;;;31.30;99.90;;;;;;5042258;28;20235;-85
2022/07/13 10:09:41;;;;;;;10.88;10.57;;;31.40;99.90;;;;;;5042170;28;20243;-85
2022/07/13 10:12:12;;;;;;;11.30;11.00;;;31.60;99.90;;;;;;5047784;28;20233;-85
2022/07/13 10:14:40;;;;;;;11.38;11.07;;;31.60;99.90;;;;;;5049428;28;20258;-84
2022/07/13 10:17:11;;;;;;;11.10;10.80;;;31.70;99.90;;;;;;5048814;28;20220;-85
2022/07/13 10:19:44;;;;;;;11.13;10.82;;;31.90;99.90;;;;;;5046827;28;20240;-85
2022/07/13 10:22:20;;;;;;;11.23;10.93;;;32.30;99.90;;;;;;5044052;28;20278;-85
2022/07/13 10:24:55;;;;;;;10.90;10.60;;;32.80;99.90;;;;;;5043217;28;20258;-84
2022/07/13 10:27:30;;;;;;;11.20;10.90;;;32.90;99.90;;;;;;5043541;28;20273;-84
2022/07/13 10:30:00;;;;;;;11.00;10.70;;;33.20;99.90;;;;;;5043018;28;20230;-85
2022/07/13 10:32:30;;;;;;;10.90;10.60;;;33.10;99.90;;;;;;5042771;28;20227;-85
2022/07/13 10:35:01;;;;;;;10.98;10.68;;;33.00;99.90;;;;;;5042484;28;20235;-84
2022/07/13 10:38:03;;;;;;;11.05;10.75;;;33.00;99.90;;;;;;5042040;28;20271;-84
2022/07/13 10:40:32;;;;;;;11.05;10.75;;;32.60;99.90;;;;;;5037366;28;20237;-84
2022/07/13 10:43:17;;;;;;;11.10;10.80;;;32.30;99.90;;;;;;5042698;28;20231;-84
2022/07/13 10:45:51;;;;;;;11.05;10.75;;;31.90;99.90;;;;;;5042328;28;20235;-85
2022/07/13 10:48:44;;;;;;;10.93;10.63;;;31.90;99.90;;;;;;5043263;28;20224;-84
2022/07/13 10:51:22;;;;;;;11.10;10.80;;;32.20;99.90;;;;;;5046273;28;20255;-84
2022/07/13 10:54:11;;;;;;;11.45;11.15;;;32.50;99.90;;;;;;5046658;28;20228;-85
2022/07/13 10:56:54;;;;;;;11.20;10.90;;;32.60;99.90;;;;;;5046222;28;20274;-85
2022/07/13 10:59:50;;;;;;;11.20;10.90;;;32.60;99.90;;;;;;5044211;28;20231;-85
2022/07/13 11:02:47;;;;;;;11.20;10.90;;;32.50;99.90;;;;;;5045526;28;20232;-85
2022/07/13 11:05:17;;;;;;;11.00;10.70;;;32.40;99.90;;;;;;5045726;28;20240;-85
2022/07/13 11:07:48;;;;;;;11.43;11.13;;;32.60;99.90;;;;;;5045565;28;20239;-85
2022/07/13 11:10:23;;;;;;;11.43;11.13;;;32.60;99.90;;;;;;5048355;28;20239;-85
2022/07/13 11:13:06;;;;;;;11.38;11.07;;;32.80;99.90;;;;;;5054169;28;20222;-84
2022/07/13 11:15:48;;;;;;;11.43;11.13;;;32.80;99.90;;;;;;5053996;28;20242;-85
2022/07/13 11:18:28;;;;;;;11.10;10.80;;;32.80;99.90;;;;;;5057466;28;20243;-85
2022/07/13 11:21:09;;;;;;;11.20;10.90;;;32.50;99.90;;;;;;5052027;28;20290;-85
2022/07/13 11:27:13;;;;;;;11.15;10.85;;;32.80;99.90;;;;;;5048754;28;20223;-85
2022/07/13 11:29:48;;;;;;;10.68;10.38;;;32.70;99.90;;;;;;5046967;28;20261;-85
2022/07/13 11:32:23;;;;;;;10.50;10.20;;;32.60;99.90;;;;;;5049043;28;20283;-85
2022/07/13 11:34:55;;;;;;;10.70;10.40;;;32.50;99.90;;;;;;5052501;28;20231;-86
2022/07/13 11:37:25;;;;;;;10.40;10.10;;;32.50;99.90;;;;;;5050457;28;20236;-86
2022/07/13 11:39:55;;;;;;;10.30;10.00;;;32.60;99.90;;;;;;5113068;22;20224;-84
2022/07/13 11:42:29;;;;;;;10.63;10.32;;;32.60;99.90;;;;;;5061328;28;20223;-85
2022/07/13 11:45:01;;;;;;;10.57;10.27;;;32.60;99.90;;;;;;5061477;28;20215;-85
2022/07/13 11:47:40;;;;;;;10.90;10.60;;;32.40;99.90;;;;;;5061667;28;20238;-86
2022/07/13 11:50:11;;;;;;;11.02;10.73;;;32.20;99.90;;;;;;5061401;28;20216;-86
2022/07/13 11:52:42;;;;;;;10.60;10.30;;;32.20;99.90;;;;;;5061623;28;20243;-87
2022/07/13 11:55:12;;;;;;;10.52;10.23;;;32.30;99.90;;;;;;5059623;28;20266;-85
2022/07/13 11:57:47;;;;;;;10.48;10.18;;;32.40;99.90;;;;;;5061581;28;20235;-86
2022/07/13 12:00:19;;;;;;;10.30;10.00;;;32.40;99.90;;;;;;5060759;28;20227;-85
2022/07/13 12:02:55;;;;;;;10.30;10.00;;;32.50;99.90;;;;;;5061047;28;20241;-85
2022/07/13 12:05:29;;;;;;;10.25;9.95;;;32.50;99.90;;;;;;5059734;28;20227;-85
2022/07/13 12:08:07;;;;;;;10.38;10.07;;;32.60;99.90;;;;;;5061258;28;20247;-85
2022/07/13 12:10:37;;;;;;;11.00;10.70;;;32.50;99.90;;;;;;5060956;28;20214;-84
2022/07/13 12:13:08;;;;;;;11.00;10.70;;;32.60;99.90;;;;;;5060227;28;20220;-85
2022/07/13 12:15:41;;;;;;;11.15;10.85;;;32.60;99.90;;;;;;5060915;28;20294;-85
2022/07/13 12:20:56;;;;;;;10.65;10.35;;;32.80;99.90;;;;;;5058871;28;20219;-84
2022/07/13 12:23:34;;;;;;;10.77;10.48;;;32.90;99.90;;;;;;5224993;22;20296;-86
2022/07/13 12:26:08;;;;;;;10.60;10.30;;;32.70;99.10;;;;;;5060519;28;20219;-85
2022/07/13 12:31:39;;;;;;;10.48;10.18;;;32.30;99.60;;;;;;5057431;28;20207;-85
2022/07/13 12:34:07;;;;;;;10.77;10.48;;;32.30;98.40;;;;;;5060319;28;20231;-87
2022/07/13 12:36:42;;;;;;;11.00;10.70;;;32.20;98.80;;;;;;5060046;28;20214;-86
2022/07/13 12:39:17;;;;;;;10.88;10.57;;;32.20;99.20;;;;;;5060569;28;20231;-87
2022/07/13 12:41:58;;;;;;;10.60;10.30;;;32.20;98.70;;;;;;5060613;28;20231;-84
2022/07/13 12:44:33;;;;;;;10.70;10.40;;;32.40;98.40;;;;;;5060661;28;20215;-84
2022/07/13 12:47:06;;;;;;;10.30;10.00;;;32.50;97.30;;;;;;5060112;28;20211;-86
2022/07/13 12:49:45;;;;;;;10.40;10.10;;;32.70;99.70;;;;;;5059702;28;20219;-87
2022/07/13 12:52:17;;;;;;;10.60;10.30;;;33.00;98.90;;;;;;5060445;28;20219;-85
2022/07/13 12:55:01;;;;;;;10.40;10.10;;;33.40;97.60;;;;;;5060690;28;20226;-84
2022/07/13 12:57:47;;;;;;;10.80;10.50;;;33.60;97.00;;;;;;5060364;28;20271;-84
2022/07/13 13:00:29;;;;;;;10.90;10.60;;;33.50;96.70;;;;;;5059867;28;20231;-85
2022/07/13 13:03:05;;;;;;;10.35;10.05;;;33.20;97.20;;;;;;5059771;28;20219;-86
2022/07/13 13:05:42;;;;;;;10.50;10.20;;;33.40;96.40;;;;;;5059511;28;20266;-86
2022/07/13 13:11:07;;;;;;;10.32;10.02;;;33.80;96.50;;;;;;5058788;28;20227;-86
2022/07/13 13:13:47;;;;;;;10.35;10.05;;;33.90;95.60;;;;;;5060018;28;20232;-85
2022/07/13 13:16:19;;;;;;;10.43;10.13;;;33.70;94.80;;;;;;5059608;28;20239;-87
2022/07/13 13:18:58;;;;;;;9.70;9.40;;;33.30;95.40;;;;;;5059286;28;20226;-87
2022/07/13 13:21:31;;;;;;;10.07;9.77;;;33.40;95.60;;;;;;5059937;28;20218;-86
2022/07/13 13:24:10;;;;;;;9.80;9.50;;;33.30;95.10;;;;;;5059917;28;20219;-86
2022/07/13 13:26:52;;;;;;;10.20;9.90;;;33.30;96.60;;;;;;5059065;28;20287;-87
2022/07/13 13:32:28;;;;;;;10.45;10.15;;;33.00;95.20;;;;;;5060868;28;20196;-89
2022/07/13 13:41:23;;;;;;;10.15;9.85;;;33.40;96.80;;;;;;5018217;28;20204;-89
2022/07/13 13:54:06;;;;;;;9.90;9.60;;;34.00;95.40;;;;;;5099014;28;20201;-89
2022/07/13 15:32:37;;;;;;;10.18;9.88;;;38.00;89.00;;;;;;5203848;22;20269;-90
2022/07/13 15:55:16;;;;;;;10.23;9.93;;;37.60;78.70;;;;;;5059712;28;20200;-89
2022/07/13 16:03:13;;;;;;;10.45;10.15;;;36.80;79.20;;;;;;5459624;22;20230;-86
2022/07/13 16:05:42;;;;;;;10.88;10.57;;;36.90;79.60;;;;;;5237272;22;20432;-89
2022/07/13 16:08:12;;;;;;;10.50;10.20;;;37.20;75.80;;;;;;5060844;28;20238;-88
2022/07/13 16:10:43;;;;;;;10.35;10.05;;;37.30;77.00;;;;;;5060726;28;20212;-87
2022/07/13 16:13:11;;;;;;;10.32;10.02;;;37.20;75.20;;;;;;5043224;28;20217;-89
2022/07/13 16:15:45;;;;;;;10.10;9.80;;;37.20;75.00;;;;;;5060143;28;20223;-89
2022/07/13 16:18:17;;;;;;;10.25;9.95;;;37.20;75.60;;;;;;5058978;28;20234;-87
2022/07/13 16:20:47;;;;;;;9.90;9.60;;;37.00;75.90;;;;;;5057698;28;20222;-87
2022/07/13 16:24:07;;;;;;;9.82;9.52;;;36.70;75.40;;;;;;5057090;28;20219;-87
2022/07/13 16:26:37;;;;;;;9.95;9.65;;;36.30;76.00;;;;;;5056862;28;20231;-85
2022/07/13 16:30:06;;;;;;;9.68;9.38;;;35.90;76.20;;;;;;5058297;28;20239;-85
2022/07/13 16:32:39;;;;;;;10.20;9.90;;;35.90;77.20;;;;;;5048262;28;20238;-86
2022/07/13 16:35:09;;;;;;;10.15;9.85;;;36.10;76.30;;;;;;5057659;28;20224;-87
2022/07/13 16:37:38;;;;;;;9.90;9.60;;;36.40;76.00;;;;;;5056641;28;20231;-87
2022/07/13 16:40:13;;;;;;;10.15;9.85;;;36.50;76.10;;;;;;5055318;28;20235;-86
2022/07/13 16:42:44;;;;;;;10.30;10.00;;;36.60;75.80;;;;;;5057368;28;20330;-87
2022/07/13 16:45:24;;;;;;;10.20;9.90;;;36.40;75.50;;;;;;5057864;28;20226;-87
2022/07/13 16:47:53;;;;;;;10.05;9.75;;;36.60;75.50;;;;;;5033552;28;20224;-86
2022/07/13 16:50:28;;;;;;;10.10;9.80;;;37.00;76.10;;;;;;5036629;28;20294;-87
2022/07/13 16:53:00;;;;;;;10.10;9.80;;;37.30;75.20;;;;;;5035699;28;20232;-86
2022/07/13 16:55:30;;;;;;;10.30;10.00;;;37.50;74.60;;;;;;5038605;28;20235;-87
2022/07/13 16:58:03;;;;;;;10.00;9.70;;;37.40;74.10;;;;;;5036360;28;20208;-84
2022/07/13 17:03:19;;;;;;;9.93;9.63;;;36.50;74.40;;;;;;5201700;22;20225;-88
2022/07/13 17:06:03;;;;;;;10.00;9.70;;;36.20;73.80;;;;;;5099467;28;20227;-88